Time;durP1;ratioP1;P1;durP2;ratioP2;P2;SDS_P1;SDS_P2;PMS_P1;PMS_P2;Temp;Humidity;BMP_temperature;BMP_pressure;BME280_temperature;BME280_humidity;BME280_pressure;Samples;Min_cycle;Max_cycle;Signal;HPM_P1;HPM_P2
2023/05/31 04:02:00;;;;;;;2.10;1.37;;;10.80;97.30;;;;;;5323752;23;20593;-85
2023/05/31 04:04:26;;;;;;;1.27;1.17;;;10.80;97.30;;;;;;4953387;28;21235;-86
2023/05/31 04:06:52;;;;;;;1.63;1.53;;;10.80;97.30;;;;;;4949270;29;20212;-86
2023/05/31 04:09:18;;;;;;;2.00;1.90;;;10.80;97.30;;;;;;4953061;29;20282;-85
2023/05/31 04:11:44;;;;;;;2.60;1.90;;;10.80;97.30;;;;;;4952379;28;20545;-87
2023/05/31 04:14:09;;;;;;;1.43;1.40;;;10.80;97.30;;;;;;4968563;28;20271;-87
2023/05/31 04:16:35;;;;;;;5.67;2.23;;;10.90;97.30;;;;;;4943286;29;20980;-87
2023/05/31 04:19:00;;;;;;;1.53;1.43;;;10.90;97.30;;;;;;4942658;29;20333;-87
2023/05/31 04:21:26;;;;;;;1.40;1.30;;;11.00;97.30;;;;;;4953345;29;20294;-87
2023/05/31 04:23:52;;;;;;;6.73;2.13;;;11.00;97.30;;;;;;4947399;28;20179;-88
2023/05/31 04:26:18;;;;;;;2.27;1.67;;;11.00;97.30;;;;;;4949579;29;20206;-86
2023/05/31 04:28:44;;;;;;;1.33;1.23;;;11.10;97.30;;;;;;4953523;28;20510;-85
2023/05/31 04:31:11;;;;;;;1.57;1.50;;;11.10;97.30;;;;;;4947064;28;21008;-87
2023/05/31 04:33:36;;;;;;;33.60;2.43;;;11.20;97.30;;;;;;4959538;28;20267;-86
2023/05/31 04:36:04;;;;;;;1.73;1.63;;;11.30;97.30;;;;;;4952034;29;20535;-85
2023/05/31 04:38:32;;;;;;;1.20;1.10;;;11.30;97.30;;;;;;4957710;28;20202;-87
2023/05/31 04:40:57;;;;;;;3.13;1.80;;;11.40;97.30;;;;;;4947023;29;20543;-86
2023/05/31 04:43:25;;;;;;;5.10;1.80;;;11.50;97.30;;;;;;4970213;28;21124;-86
2023/05/31 04:45:51;;;;;;;2.63;2.47;;;11.50;97.30;;;;;;4950018;29;20278;-86
2023/05/31 04:48:17;;;;;;;1.50;1.40;;;11.60;97.30;;;;;;4951774;29;20423;-87
2023/05/31 04:50:43;;;;;;;1.97;1.87;;;11.60;97.30;;;;;;4947642;28;20485;-86
2023/05/31 04:53:10;;;;;;;1.60;1.50;;;11.60;97.30;;;;;;4957592;28;20314;-87
2023/05/31 04:55:35;;;;;;;1.10;1.00;;;11.60;97.30;;;;;;4954474;29;20959;-87
2023/05/31 04:58:01;;;;;;;1.67;1.20;;;11.70;97.30;;;;;;4961459;28;20451;-86
2023/05/31 05:00:26;;;;;;;1.40;1.37;;;11.80;97.30;;;;;;4946248;29;20187;-87
2023/05/31 05:02:52;;;;;;;4.50;2.40;;;11.90;97.30;;;;;;4947017;29;20322;-87
2023/05/31 05:05:18;;;;;;;1.77;1.47;;;12.00;97.30;;;;;;4945151;29;20211;-86
2023/05/31 05:07:43;;;;;;;1.53;1.50;;;12.10;97.30;;;;;;4954034;28;20183;-86
2023/05/31 05:10:09;;;;;;;1.57;1.17;;;12.20;97.30;;;;;;4943594;29;20192;-88
2023/05/31 05:12:34;;;;;;;1.70;1.60;;;12.30;97.30;;;;;;4947876;28;20262;-87
2023/05/31 05:15:00;;;;;;;2.90;1.80;;;12.30;97.30;;;;;;4951936;29;20510;-87
2023/05/31 05:17:26;;;;;;;1.60;1.53;;;12.40;97.30;;;;;;4960610;28;20236;-86
2023/05/31 05:19:51;;;;;;;2.20;1.20;;;12.50;97.30;;;;;;4952070;29;20187;-87
2023/05/31 05:22:17;;;;;;;2.60;1.27;;;12.60;97.30;;;;;;4952474;28;20295;-87
2023/05/31 05:24:43;;;;;;;1.50;1.40;;;12.60;97.30;;;;;;4958633;28;20214;-87
2023/05/31 05:27:08;;;;;;;1.47;1.37;;;12.70;97.30;;;;;;4948905;29;20865;-86
2023/05/31 05:29:33;;;;;;;1.43;1.40;;;12.70;97.30;;;;;;4939908;29;20194;-86
2023/05/31 05:31:59;;;;;;;3.00;2.60;;;12.80;97.30;;;;;;4952977;29;20564;-87
2023/05/31 05:34:25;;;;;;;3.13;2.23;;;12.90;97.30;;;;;;4944146;29;20213;-87
2023/05/31 05:36:52;;;;;;;11.40;1.60;;;12.90;97.30;;;;;;4953452;28;20186;-86
2023/05/31 05:39:17;;;;;;;1.30;1.20;;;13.00;97.30;;;;;;4961373;29;20199;-86
2023/05/31 05:41:43;;;;;;;2.50;1.63;;;13.00;97.30;;;;;;4958645;28;20444;-87
2023/05/31 05:44:08;;;;;;;1.53;1.50;;;13.10;97.30;;;;;;4962427;29;20212;-86
2023/05/31 05:46:35;;;;;;;3.43;3.03;;;13.20;97.30;;;;;;4975424;28;20220;-87
2023/05/31 05:49:00;;;;;;;2.03;1.63;;;13.30;97.30;;;;;;4964377;29;20421;-88
2023/05/31 05:51:26;;;;;;;3.90;2.23;;;13.30;97.30;;;;;;4969885;28;20263;-86
2023/05/31 05:53:52;;;;;;;2.50;1.50;;;13.40;97.10;;;;;;4971747;28;20179;-86
2023/05/31 05:56:20;;;;;;;2.40;2.20;;;13.40;96.80;;;;;;4965505;29;20418;-86
2023/05/31 05:58:46;;;;;;;2.80;1.53;;;13.50;96.80;;;;;;4977006;28;20187;-87
2023/05/31 06:01:12;;;;;;;1.07;0.97;;;13.50;96.90;;;;;;4960102;29;20485;-85
2023/05/31 06:03:39;;;;;;;1.13;1.10;;;13.60;96.90;;;;;;4976749;28;20427;-87
2023/05/31 06:06:05;;;;;;;2.63;1.80;;;13.70;96.40;;;;;;4971166;28;20543;-87
2023/05/31 06:08:30;;;;;;;2.40;2.13;;;13.80;96.40;;;;;;4966661;29;20446;-86
2023/05/31 06:10:55;;;;;;;1.87;1.40;;;13.80;96.40;;;;;;4979945;28;20212;-87
2023/05/31 06:13:21;;;;;;;1.93;1.73;;;13.90;96.30;;;;;;4949360;29;20187;-87
2023/05/31 06:15:46;;;;;;;11.60;1.83;;;14.00;96.40;;;;;;4957087;29;20261;-87
2023/05/31 06:18:12;;;;;;;1.60;1.50;;;14.00;96.40;;;;;;4959702;29;20187;-87
2023/05/31 06:20:38;;;;;;;1.50;1.40;;;14.10;96.50;;;;;;4962747;28;20214;-86
2023/05/31 06:23:03;;;;;;;5.70;2.07;;;14.20;96.40;;;;;;4957652;29;20231;-87
2023/05/31 06:25:29;;;;;;;1.97;1.87;;;14.20;96.20;;;;;;4951308;29;20463;-87
2023/05/31 06:27:57;;;;;;;1.77;1.67;;;14.30;96.20;;;;;;4944595;29;20180;-88
2023/05/31 06:30:22;;;;;;;3.10;2.27;;;14.40;96.10;;;;;;4948884;29;20425;-87
2023/05/31 06:32:48;;;;;;;1.97;1.67;;;14.40;96.00;;;;;;4951114;29;20517;-87
2023/05/31 06:35:13;;;;;;;2.63;2.43;;;14.50;95.90;;;;;;4952285;29;20258;-87
2023/05/31 06:37:39;;;;;;;1.83;1.73;;;14.50;95.60;;;;;;4947694;29;20318;-86
2023/05/31 06:40:06;;;;;;;3.57;1.33;;;14.60;95.30;;;;;;4951446;29;20202;-86
2023/05/31 06:42:32;;;;;;;1.87;1.77;;;14.70;95.20;;;;;;4965130;28;20210;-87
2023/05/31 06:44:57;;;;;;;10.87;1.93;;;14.80;95.00;;;;;;4967668;28;20466;-88
2023/05/31 06:47:23;;;;;;;4.00;2.03;;;14.80;94.70;;;;;;4944396;29;20191;-87
2023/05/31 06:49:49;;;;;;;11.33;2.33;;;14.90;94.60;;;;;;4950723;29;20171;-87
2023/05/31 06:52:14;;;;;;;18.53;1.93;;;15.00;94.60;;;;;;4952930;29;20195;-87
2023/05/31 06:54:46;;;;;;;4.00;1.60;;;15.00;94.60;;;;;;4966435;28;20284;-87
2023/05/31 06:57:11;;;;;;;1.00;0.90;;;15.10;94.50;;;;;;4950163;29;20184;-88
2023/05/31 06:59:37;;;;;;;1.67;1.57;;;15.20;94.50;;;;;;4955122;29;20425;-87
2023/05/31 07:02:03;;;;;;;1.20;1.10;;;15.30;94.20;;;;;;4949984;29;20227;-88
2023/05/31 07:04:28;;;;;;;1.63;1.50;;;15.40;93.80;;;;;;4954852;28;20564;-87
2023/05/31 07:06:54;;;;;;;1.83;1.60;;;15.50;93.60;;;;;;4941901;29;20470;-86
2023/05/31 07:09:19;;;;;;;1.13;1.03;;;15.60;93.50;;;;;;4954957;28;20223;-87
2023/05/31 07:11:45;;;;;;;1.20;1.10;;;15.70;93.40;;;;;;4940293;29;20210;-88
2023/05/31 07:14:10;;;;;;;2.50;2.37;;;15.80;92.60;;;;;;4969218;28;20226;-87
2023/05/31 07:16:36;;;;;;;1.87;1.77;;;15.90;92.40;;;;;;4966475;28;20202;-86
2023/05/31 07:19:02;;;;;;;3.97;2.03;;;15.90;92.50;;;;;;4959615;28;20187;-85
2023/05/31 07:21:28;;;;;;;3.10;1.47;;;16.00;92.40;;;;;;4959690;29;20505;-88
2023/05/31 07:23:55;;;;;;;1.60;1.60;;;16.10;92.10;;;;;;4951422;29;20478;-86
2023/05/31 07:26:21;;;;;;;1.77;1.47;;;16.20;91.90;;;;;;4957939;29;20466;-86
2023/05/31 07:28:46;;;;;;;3.33;2.23;;;16.30;92.00;;;;;;4954634;29;20415;-86
2023/05/31 07:31:15;;;;;;;2.27;2.13;;;16.40;92.20;;;;;;4949840;29;20203;-87
2023/05/31 07:33:41;;;;;;;1.50;1.40;;;16.60;92.20;;;;;;4943121;29;20180;-86
2023/05/31 07:36:06;;;;;;;2.00;1.93;;;16.80;92.00;;;;;;4947878;29;20449;-84
2023/05/31 07:38:32;;;;;;;4.10;2.30;;;16.90;91.70;;;;;;4954746;29;20183;-86
2023/05/31 07:40:58;;;;;;;12.90;2.73;;;17.00;91.40;;;;;;4954444;29;20203;-85
2023/05/31 07:43:24;;;;;;;2.50;2.30;;;17.10;90.70;;;;;;4943823;29;20179;-83
2023/05/31 07:45:50;;;;;;;2.90;2.00;;;17.30;91.00;;;;;;4943300;29;20203;-86
2023/05/31 07:48:17;;;;;;;1.23;1.13;;;17.40;90.90;;;;;;4943393;29;20420;-86
2023/05/31 07:50:43;;;;;;;2.20;2.00;;;17.40;89.80;;;;;;4946917;29;20502;-85
2023/05/31 07:53:09;;;;;;;3.23;1.93;;;17.50;89.70;;;;;;4949775;29;20415;-86
2023/05/31 07:55:35;;;;;;;4.60;1.50;;;17.60;89.30;;;;;;4952399;29;20438;-86
2023/05/31 07:58:00;;;;;;;1.60;1.50;;;17.70;89.30;;;;;;4951044;29;20199;-87
2023/05/31 08:00:26;;;;;;;6.23;1.90;;;17.80;89.40;;;;;;4954461;28;20195;-85
2023/05/31 08:02:51;;;;;;;4.10;2.20;;;17.90;89.70;;;;;;4951250;29;20319;-87
2023/05/31 08:05:17;;;;;;;1.40;1.30;;;18.00;89.10;;;;;;4953562;29;20334;-86
2023/05/31 08:07:42;;;;;;;1.50;1.40;;;18.10;89.10;;;;;;4960985;28;20334;-87
2023/05/31 08:10:09;;;;;;;4.40;1.63;;;18.20;88.90;;;;;;4947283;29;20203;-87
2023/05/31 08:12:35;;;;;;;1.90;1.33;;;18.30;89.00;;;;;;4946240;29;20202;-85
2023/05/31 08:15:00;;;;;;;9.63;1.77;;;18.40;88.80;;;;;;4952582;29;20411;-86
2023/05/31 08:17:26;;;;;;;1.47;1.37;;;18.40;88.50;;;;;;4940440;29;20168;-87
2023/05/31 08:19:52;;;;;;;2.87;2.03;;;18.50;88.10;;;;;;4949524;29;20713;-87
2023/05/31 08:22:17;;;;;;;2.13;1.30;;;18.60;87.90;;;;;;4962265;28;20477;-87
2023/05/31 08:24:43;;;;;;;3.70;1.67;;;18.70;88.20;;;;;;4954563;28;20184;-87
2023/05/31 08:27:09;;;;;;;5.87;3.07;;;18.80;88.10;;;;;;4946531;29;20665;-86
2023/05/31 08:29:34;;;;;;;4.10;2.27;;;18.80;87.50;;;;;;4962699;28;20183;-85
2023/05/31 08:32:00;;;;;;;1.80;1.70;;;18.90;86.90;;;;;;4959327;28;20199;-86
2023/05/31 08:34:25;;;;;;;1.50;1.40;;;19.00;86.50;;;;;;4956499;28;20175;-86
2023/05/31 08:36:51;;;;;;;1.77;1.60;;;19.10;85.40;;;;;;4949796;29;20741;-85
2023/05/31 08:39:17;;;;;;;1.60;1.50;;;19.10;85.30;;;;;;4946832;29;20501;-86
2023/05/31 08:41:54;;;;;;;4.17;2.20;;;19.20;85.10;;;;;;4944751;29;20198;-86
2023/05/31 08:44:21;;;;;;;3.33;2.43;;;19.30;85.10;;;;;;4943059;29;20357;-86
2023/05/31 08:46:47;;;;;;;2.50;1.73;;;19.40;85.00;;;;;;4963413;28;20454;-86
2023/05/31 08:49:15;;;;;;;2.27;1.70;;;19.40;84.80;;;;;;4949373;29;20407;-86
2023/05/31 08:51:44;;;;;;;4.70;2.50;;;19.50;85.40;;;;;;4957546;28;20443;-86
2023/05/31 08:54:10;;;;;;;1.70;1.60;;;19.60;85.80;;;;;;4948506;29;20415;-85
2023/05/31 08:56:38;;;;;;;1.30;1.20;;;19.70;85.80;;;;;;4951745;28;20451;-86
2023/05/31 08:59:10;;;;;;;1.53;1.33;;;19.80;85.30;;;;;;4958943;28;20433;-86
2023/05/31 09:01:37;;;;;;;1.70;1.30;;;19.90;84.60;;;;;;4952950;28;20896;-85
2023/05/31 09:04:05;;;;;;;7.23;2.70;;;20.00;84.40;;;;;;4954270;28;20435;-85
2023/05/31 09:06:32;;;;;;;7.90;3.40;;;20.00;84.30;;;;;;4941176;29;21145;-86
2023/05/31 09:08:59;;;;;;;1.70;1.60;;;20.10;83.90;;;;;;4952981;29;20430;-83
2023/05/31 09:11:25;;;;;;;1.63;1.57;;;20.10;83.90;;;;;;4947442;28;20612;-85
2023/05/31 09:13:51;;;;;;;1.70;1.60;;;20.20;82.80;;;;;;4952723;29;20431;-84
2023/05/31 09:16:16;;;;;;;1.47;1.37;;;20.30;83.40;;;;;;4962479;28;20920;-86
2023/05/31 09:18:42;;;;;;;1.53;1.40;;;20.40;83.20;;;;;;4957244;28;20179;-86
2023/05/31 09:21:13;;;;;;;2.70;1.70;;;20.50;83.60;;;;;;4944628;29;20666;-85
2023/05/31 09:23:55;;;;;;;1.73;1.63;;;20.60;83.80;;;;;;4949467;29;20179;-87
2023/05/31 09:26:21;;;;;;;19.67;1.80;;;20.80;83.70;;;;;;4943685;29;20477;-88
2023/05/31 09:28:53;;;;;;;1.43;1.33;;;21.00;81.40;;;;;;4948694;28;20423;-86
2023/05/31 09:31:19;;;;;;;3.23;1.77;;;21.20;82.00;;;;;;4945544;28;20257;-86
2023/05/31 09:33:50;;;;;;;1.30;1.20;;;21.30;81.20;;;;;;4957954;28;20427;-84
2023/05/31 09:36:30;;;;;;;4.50;1.40;;;21.30;80.10;;;;;;4941183;29;20430;-84
2023/05/31 09:39:08;;;;;;;1.87;1.77;;;21.40;79.20;;;;;;4937046;28;20427;-83
2023/05/31 09:41:34;;;;;;;1.57;1.53;;;21.50;78.80;;;;;;4945461;28;20446;-84
2023/05/31 09:44:00;;;;;;;2.67;1.50;;;21.50;78.10;;;;;;4944221;29;20414;-85
2023/05/31 09:46:26;;;;;;;1.40;1.30;;;21.50;76.90;;;;;;4953052;28;20525;-88
2023/05/31 09:49:03;;;;;;;1.43;1.33;;;21.50;77.60;;;;;;4945752;29;20182;-85
2023/05/31 09:51:32;;;;;;;1.53;1.43;;;21.50;77.30;;;;;;4956190;28;20218;-86
2023/05/31 09:53:59;;;;;;;2.30;1.30;;;21.60;76.80;;;;;;4948038;29;21025;-84
2023/05/31 09:56:27;;;;;;;1.70;1.60;;;21.60;77.00;;;;;;4952571;28;20433;-86
2023/05/31 09:58:56;;;;;;;1.13;1.03;;;21.70;77.20;;;;;;4969298;28;20447;-89
2023/05/31 10:01:21;;;;;;;7.23;1.80;;;21.80;76.30;;;;;;4948574;29;20477;-86
2023/05/31 10:03:50;;;;;;;4.40;2.03;;;22.00;77.00;;;;;;4945606;29;20794;-85
2023/05/31 10:06:17;;;;;;;1.50;1.40;;;22.10;75.70;;;;;;4948802;29;20199;-85
2023/05/31 10:08:45;;;;;;;1.70;1.60;;;22.20;75.10;;;;;;4960034;28;20470;-85
2023/05/31 10:11:13;;;;;;;1.10;1.10;;;22.30;75.20;;;;;;4939552;29;20466;-84
2023/05/31 10:13:43;;;;;;;1.40;1.10;;;22.40;73.80;;;;;;4950281;29;20449;-84
2023/05/31 10:16:10;;;;;;;1.40;1.40;;;22.40;73.80;;;;;;4945071;29;21002;-86
2023/05/31 10:18:48;;;;;;;1.20;1.20;;;22.40;74.20;;;;;;4975185;23;21107;-85
2023/05/31 10:21:24;;;;;;;1.57;1.33;;;22.50;74.80;;;;;;4960387;28;20419;-86
2023/05/31 10:24:08;;;;;;;1.73;1.63;;;22.50;73.30;;;;;;4963860;28;20422;-85
2023/05/31 10:26:58;;;;;;;1.83;1.73;;;22.50;73.70;;;;;;4977483;28;20519;-86
2023/05/31 10:29:30;;;;;;;2.60;2.03;;;22.50;73.40;;;;;;4967311;28;20803;-86
2023/05/31 10:32:08;;;;;;;1.23;1.13;;;22.50;74.00;;;;;;4967214;28;20850;-89
2023/05/31 10:34:33;;;;;;;1.77;1.67;;;22.50;74.20;;;;;;4961303;28;20422;-87
2023/05/31 10:36:59;;;;;;;2.10;1.33;;;22.70;73.90;;;;;;4967997;28;20600;-87
2023/05/31 10:39:34;;;;;;;2.43;1.73;;;22.80;73.20;;;;;;4973998;28;20210;-88
2023/05/31 10:42:11;;;;;;;6.43;1.40;;;22.90;73.80;;;;;;4977353;28;20198;-86
2023/05/31 10:44:44;;;;;;;1.50;1.40;;;23.00;73.80;;;;;;4972094;28;20414;-86
2023/05/31 10:47:12;;;;;;;1.60;1.50;;;23.00;74.20;;;;;;4973543;28;20473;-89
2023/05/31 10:49:41;;;;;;;1.60;1.30;;;23.10;74.30;;;;;;4971657;28;20524;-88
2023/05/31 10:52:09;;;;;;;1.50;1.40;;;23.30;74.30;;;;;;4967097;28;20451;-87
2023/05/31 10:54:34;;;;;;;2.30;1.33;;;23.40;74.50;;;;;;4968570;28;20417;-87
2023/05/31 10:57:03;;;;;;;1.20;1.10;;;23.50;75.20;;;;;;4957531;28;20808;-86
2023/05/31 10:59:38;;;;;;;0.73;0.67;;;23.70;72.40;;;;;;4972784;28;20225;-87
2023/05/31 11:02:05;;;;;;;2.30;1.60;;;23.70;72.90;;;;;;4960538;28;20560;-89
2023/05/31 11:04:31;;;;;;;1.83;1.40;;;23.80;72.20;;;;;;4986410;28;20493;-90
2023/05/31 11:07:14;;;;;;;2.07;1.40;;;23.90;71.20;;;;;;4990422;28;20473;-89
2023/05/31 11:09:56;;;;;;;1.37;1.30;;;23.90;71.70;;;;;;4988509;28;20419;-89
2023/05/31 11:12:36;;;;;;;4.80;1.87;;;24.00;73.40;;;;;;4961317;28;20440;-88
2023/05/31 11:15:04;;;;;;;5.00;1.70;;;24.20;72.90;;;;;;4958555;28;20426;-89
2023/05/31 11:17:39;;;;;;;13.03;1.57;;;24.30;72.60;;;;;;4963162;28;20465;-90
2023/05/31 11:20:05;;;;;;;8.40;1.43;;;24.40;71.30;;;;;;4970796;28;20906;-88
2023/05/31 11:22:31;;;;;;;2.13;1.43;;;24.50;71.00;;;;;;4969098;28;20458;-89
2023/05/31 11:25:00;;;;;;;4.60;1.83;;;24.60;70.80;;;;;;4964582;28;20418;-87
2023/05/31 11:27:39;;;;;;;1.20;1.10;;;24.60;70.40;;;;;;4969403;28;20266;-87
2023/05/31 11:30:09;;;;;;;2.00;1.57;;;24.60;69.90;;;;;;4958948;28;20424;-88
2023/05/31 11:32:34;;;;;;;1.77;0.93;;;24.60;70.60;;;;;;4968924;28;20418;-88
2023/05/31 11:35:06;;;;;;;3.67;1.67;;;24.60;70.30;;;;;;4954025;28;20525;-86
2023/05/31 11:37:35;;;;;;;2.00;1.33;;;24.60;69.30;;;;;;4963227;28;20199;-89
2023/05/31 11:40:07;;;;;;;2.40;1.73;;;24.60;70.20;;;;;;4964767;28;20422;-87
2023/05/31 11:42:37;;;;;;;1.13;1.10;;;24.60;71.60;;;;;;4959904;28;20421;-88
2023/05/31 11:45:14;;;;;;;2.10;1.70;;;24.80;72.80;;;;;;4963414;28;20423;-89
2023/05/31 11:48:18;;;;;;;1.27;1.20;;;25.00;73.00;;;;;;4952691;28;20541;-87
2023/05/31 11:50:43;;;;;;;1.47;1.37;;;25.20;70.00;;;;;;4949793;28;20473;-87
2023/05/31 11:53:10;;;;;;;1.57;1.30;;;25.20;70.00;;;;;;4965171;28;20414;-88
2023/05/31 11:55:35;;;;;;;1.17;1.07;;;25.10;68.90;;;;;;4959957;28;20189;-89
2023/05/31 11:58:01;;;;;;;12.40;1.97;;;25.10;69.10;;;;;;4971160;28;20438;-87
2023/05/31 12:00:28;;;;;;;1.47;1.37;;;25.00;68.40;;;;;;4964789;28;20187;-89
2023/05/31 12:02:56;;;;;;;1.97;1.07;;;25.00;68.60;;;;;;4955386;28;20431;-86
2023/05/31 12:05:22;;;;;;;5.07;1.70;;;25.10;69.00;;;;;;4960328;28;20477;-87
2023/05/31 12:07:55;;;;;;;1.40;1.37;;;25.10;70.30;;;;;;4968169;28;20987;-89
2023/05/31 12:10:24;;;;;;;3.00;1.63;;;25.30;71.00;;;;;;4956877;28;20277;-89
2023/05/31 12:12:50;;;;;;;1.07;0.97;;;25.40;70.90;;;;;;4961701;28;20433;-87
2023/05/31 12:15:16;;;;;;;2.57;1.43;;;25.60;70.70;;;;;;4967311;28;20427;-90
2023/05/31 12:17:42;;;;;;;1.17;1.00;;;25.80;70.00;;;;;;4959316;28;20235;-86
2023/05/31 12:20:09;;;;;;;1.40;1.40;;;25.90;68.80;;;;;;4965837;28;20492;-91
2023/05/31 12:22:38;;;;;;;1.20;1.10;;;26.00;69.30;;;;;;4962473;28;20194;-89
2023/05/31 12:25:06;;;;;;;3.57;1.63;;;26.00;69.10;;;;;;4962513;28;20779;-88
2023/05/31 12:27:35;;;;;;;2.30;1.70;;;26.10;68.10;;;;;;4954455;28;20490;-91
2023/05/31 12:30:05;;;;;;;2.97;2.23;;;26.10;69.70;;;;;;4951630;28;20423;-87
2023/05/31 12:32:34;;;;;;;1.37;1.20;;;26.30;68.90;;;;;;4964868;28;20422;-89
2023/05/31 12:35:08;;;;;;;1.90;1.50;;;26.40;69.50;;;;;;4959748;28;20426;-87
2023/05/31 12:37:38;;;;;;;3.47;1.47;;;26.50;67.70;;;;;;4969574;28;20441;-88
2023/05/31 12:40:11;;;;;;;6.00;1.10;;;26.50;68.10;;;;;;4958354;28;20427;-88
2023/05/31 12:42:37;;;;;;;2.90;1.57;;;26.70;68.50;;;;;;4966523;28;21378;-87
2023/05/31 12:45:06;;;;;;;1.80;1.20;;;26.80;68.30;;;;;;4963616;28;20499;-88
2023/05/31 12:47:33;;;;;;;3.70;1.87;;;26.80;68.70;;;;;;4959255;28;20454;-87
2023/05/31 12:50:07;;;;;;;1.97;1.70;;;26.90;68.50;;;;;;4969631;28;20422;-87
2023/05/31 12:52:34;;;;;;;4.00;1.43;;;27.00;67.80;;;;;;4960730;28;20426;-87
2023/05/31 12:55:04;;;;;;;1.90;1.40;;;27.10;68.80;;;;;;4967451;28;20959;-85
2023/05/31 12:57:30;;;;;;;1.27;1.10;;;27.10;67.00;;;;;;4958418;28;20447;-86
2023/05/31 13:00:02;;;;;;;1.73;1.60;;;27.10;66.00;;;;;;4967022;28;20416;-86
2023/05/31 13:02:28;;;;;;;1.23;1.13;;;27.10;66.40;;;;;;4966040;28;20508;-87
2023/05/31 13:04:54;;;;;;;2.10;1.27;;;27.10;65.10;;;;;;4968141;28;20422;-86
2023/05/31 13:07:22;;;;;;;2.63;2.00;;;27.00;66.40;;;;;;4964583;28;20210;-88
2023/05/31 13:09:48;;;;;;;1.40;1.30;;;26.90;66.10;;;;;;4960396;28;21125;-85
2023/05/31 13:12:18;;;;;;;1.67;1.60;;;26.90;66.40;;;;;;4960701;28;20501;-87
2023/05/31 13:14:46;;;;;;;1.23;1.13;;;27.00;66.60;;;;;;4961709;28;20601;-86
2023/05/31 13:17:12;;;;;;;1.57;1.17;;;27.00;66.10;;;;;;4971088;28;20422;-85
2023/05/31 13:19:37;;;;;;;3.93;2.13;;;27.20;67.10;;;;;;4968635;28;20434;-87
2023/05/31 13:22:07;;;;;;;3.30;1.67;;;27.50;68.20;;;;;;4955398;28;20179;-87
2023/05/31 13:24:37;;;;;;;1.13;1.03;;;27.80;66.60;;;;;;4969940;28;20653;-86
2023/05/31 13:27:07;;;;;;;1.50;1.10;;;27.90;65.50;;;;;;4952835;28;20540;-88
2023/05/31 13:29:32;;;;;;;1.77;1.67;;;28.00;65.20;;;;;;4961388;28;20462;-88
2023/05/31 13:31:58;;;;;;;1.50;1.40;;;27.90;66.00;;;;;;4953306;28;20431;-89
2023/05/31 13:34:24;;;;;;;1.67;1.40;;;28.00;65.80;;;;;;4957434;28;20270;-89
2023/05/31 13:36:50;;;;;;;1.93;1.13;;;28.10;66.80;;;;;;4969106;28;20426;-88
2023/05/31 13:39:16;;;;;;;3.80;1.87;;;28.10;64.50;;;;;;4961439;28;20443;-87
2023/05/31 13:41:47;;;;;;;1.07;0.97;;;28.10;64.50;;;;;;4952724;28;20261;-88
2023/05/31 13:44:15;;;;;;;1.50;1.40;;;28.10;65.20;;;;;;4964327;28;20194;-86
2023/05/31 13:46:41;;;;;;;1.30;1.20;;;28.30;65.30;;;;;;4966501;28;20489;-89
2023/05/31 13:49:06;;;;;;;3.80;2.27;;;28.30;64.60;;;;;;4963786;28;20461;-90
2023/05/31 13:51:32;;;;;;;0.93;0.90;;;28.30;64.20;;;;;;4952613;28;20423;-87
2023/05/31 13:53:58;;;;;;;1.43;1.07;;;28.30;63.20;;;;;;4952464;28;20661;-89
2023/05/31 13:56:25;;;;;;;1.03;1.00;;;28.30;63.10;;;;;;4962666;28;20186;-89
2023/05/31 13:58:50;;;;;;;1.47;1.37;;;28.30;63.10;;;;;;4955292;28;20207;-89
2023/05/31 14:01:16;;;;;;;1.57;1.47;;;28.30;62.40;;;;;;4957310;28;20769;-88
2023/05/31 14:03:41;;;;;;;1.80;1.37;;;28.20;61.30;;;;;;4964799;28;20183;-88
2023/05/31 14:06:07;;;;;;;2.93;1.67;;;27.90;62.50;;;;;;4962862;28;20195;-89
2023/05/31 14:08:34;;;;;;;6.50;2.60;;;27.60;62.60;;;;;;4964582;28;20249;-89
2023/05/31 14:11:00;;;;;;;1.83;1.80;;;27.40;62.90;;;;;;4961811;28;20437;-86
2023/05/31 14:13:26;;;;;;;2.03;1.20;;;27.20;63.90;;;;;;4969538;28;20825;-89
2023/05/31 14:15:52;;;;;;;2.47;1.60;;;27.20;64.20;;;;;;4968573;28;20210;-88
2023/05/31 14:18:17;;;;;;;1.10;1.00;;;27.30;65.10;;;;;;4951914;28;20242;-88
2023/05/31 14:20:45;;;;;;;1.20;1.10;;;27.40;64.70;;;;;;4955927;28;20490;-86
2023/05/31 14:23:11;;;;;;;1.33;1.00;;;27.50;64.90;;;;;;4961971;28;20178;-87
2023/05/31 14:25:36;;;;;;;2.87;1.53;;;27.50;64.90;;;;;;4967659;28;20482;-88
2023/05/31 14:28:02;;;;;;;1.20;1.10;;;27.40;65.20;;;;;;4961583;28;20238;-89
2023/05/31 14:30:27;;;;;;;1.27;1.17;;;27.30;65.70;;;;;;4963297;28;20193;-87
2023/05/31 14:32:53;;;;;;;1.27;1.20;;;27.20;65.20;;;;;;4957682;28;20269;-88
2023/05/31 14:35:20;;;;;;;1.00;1.00;;;27.10;65.60;;;;;;4968071;28;20562;-87
2023/05/31 14:37:47;;;;;;;1.23;1.13;;;27.00;65.30;;;;;;4958606;28;20206;-88
2023/05/31 14:40:15;;;;;;;0.97;0.93;;;26.90;65.40;;;;;;4966599;28;20437;-85
2023/05/31 14:42:40;;;;;;;1.37;1.30;;;26.90;64.90;;;;;;4967597;28;20426;-85
2023/05/31 14:45:06;;;;;;;1.43;1.03;;;27.00;65.80;;;;;;4956846;28;20789;-87
2023/05/31 14:47:33;;;;;;;16.73;2.47;;;27.20;65.30;;;;;;4954621;28;20525;-84
2023/05/31 14:49:59;;;;;;;2.00;1.30;;;27.40;66.30;;;;;;4958887;28;20431;-84
2023/05/31 14:52:25;;;;;;;1.57;1.47;;;27.50;64.20;;;;;;4962986;28;20824;-88
2023/05/31 14:54:50;;;;;;;2.00;1.47;;;27.60;64.20;;;;;;4952488;28;20179;-85
2023/05/31 14:57:16;;;;;;;1.10;1.00;;;27.70;64.20;;;;;;4963652;28;20190;-85
2023/05/31 14:59:41;;;;;;;4.20;1.47;;;27.90;65.00;;;;;;4965761;28;20183;-87
2023/05/31 15:02:08;;;;;;;2.60;2.47;;;28.00;64.10;;;;;;4962806;28;20182;-85
2023/05/31 15:04:35;;;;;;;1.33;1.33;;;28.20;64.00;;;;;;4963491;28;20179;-85
2023/05/31 15:07:01;;;;;;;1.77;1.67;;;28.40;63.60;;;;;;4951830;28;20455;-86
2023/05/31 15:09:26;;;;;;;0.90;0.83;;;28.30;63.10;;;;;;4952114;28;20485;-85
2023/05/31 15:11:52;;;;;;;1.83;1.37;;;28.20;63.30;;;;;;4964555;28;20556;-87
2023/05/31 15:14:17;;;;;;;3.20;2.20;;;28.10;63.80;;;;;;4957693;28;20202;-86
2023/05/31 15:16:43;;;;;;;2.97;1.90;;;28.10;63.30;;;;;;4969256;28;20182;-88
2023/05/31 15:19:09;;;;;;;3.70;1.90;;;28.00;63.40;;;;;;4964741;28;20230;-88
2023/05/31 15:21:35;;;;;;;2.60;1.47;;;27.80;62.90;;;;;;4968896;28;20193;-85
2023/05/31 15:24:01;;;;;;;1.50;1.40;;;27.70;63.00;;;;;;4954507;28;20187;-86
2023/05/31 15:26:27;;;;;;;1.30;1.20;;;27.60;63.30;;;;;;4968220;28;20457;-85
2023/05/31 15:28:52;;;;;;;3.37;1.60;;;27.50;62.70;;;;;;4956607;28;20195;-85
2023/05/31 15:31:18;;;;;;;3.00;1.67;;;27.40;63.30;;;;;;4971733;28;20671;-85
2023/05/31 15:33:46;;;;;;;1.30;1.20;;;27.50;64.60;;;;;;4972741;28;20233;-87
2023/05/31 15:36:12;;;;;;;2.13;1.33;;;27.70;65.30;;;;;;4991635;28;20171;-88
2023/05/31 15:38:37;;;;;;;1.53;1.23;;;28.00;64.60;;;;;;4992663;28;20496;-87
2023/05/31 15:41:04;;;;;;;2.10;1.30;;;28.20;63.50;;;;;;4983456;28;20175;-86
2023/05/31 15:43:29;;;;;;;1.30;1.17;;;28.40;63.90;;;;;;4974256;28;20183;-87
2023/05/31 15:45:58;;;;;;;2.30;1.20;;;28.50;63.00;;;;;;4978845;28;21067;-86
2023/05/31 15:48:24;;;;;;;1.77;1.17;;;28.50;62.50;;;;;;4965983;28;20305;-86
2023/05/31 15:50:49;;;;;;;2.40;1.27;;;28.50;62.30;;;;;;4971764;28;20949;-86
2023/05/31 15:53:15;;;;;;;3.40;1.80;;;28.50;61.90;;;;;;4964224;28;20469;-86
2023/05/31 15:55:46;;;;;;;1.30;1.20;;;28.50;62.20;;;;;;4969559;28;20265;-87
2023/05/31 15:58:11;;;;;;;1.20;1.20;;;28.50;62.80;;;;;;4973435;28;20207;-88
2023/05/31 16:00:38;;;;;;;1.77;1.53;;;28.60;63.20;;;;;;4958087;28;20959;-86
2023/05/31 16:03:03;;;;;;;3.73;2.03;;;28.70;62.80;;;;;;4951684;28;20187;-89
2023/05/31 16:05:29;;;;;;;2.50;1.20;;;28.70;61.20;;;;;;4962523;28;20517;-89
2023/05/31 16:07:59;;;;;;;1.80;1.07;;;28.80;60.70;;;;;;4957982;28;20229;-86
2023/05/31 16:10:25;;;;;;;1.20;1.10;;;28.80;60.50;;;;;;4963755;28;20466;-89
2023/05/31 16:12:50;;;;;;;3.27;1.53;;;28.90;59.90;;;;;;4958875;28;20429;-89
2023/05/31 16:15:16;;;;;;;1.27;0.97;;;29.00;61.00;;;;;;4957130;28;20626;-85
2023/05/31 16:17:41;;;;;;;1.00;0.90;;;29.00;59.70;;;;;;4964334;28;20226;-84
2023/05/31 16:20:07;;;;;;;1.67;1.53;;;29.00;60.60;;;;;;4956906;28;20187;-85
2023/05/31 16:22:33;;;;;;;2.50;0.97;;;28.90;59.70;;;;;;4957798;28;20184;-84
2023/05/31 16:24:59;;;;;;;4.77;1.10;;;28.70;59.60;;;;;;4966341;28;20979;-84
2023/05/31 16:27:24;;;;;;;0.90;0.80;;;28.60;59.30;;;;;;4968637;23;20577;-85
2023/05/31 16:29:50;;;;;;;1.87;1.50;;;28.60;60.20;;;;;;4951827;29;20189;-86
2023/05/31 16:32:15;;;;;;;1.50;1.40;;;28.70;60.00;;;;;;4949742;29;20186;-85
2023/05/31 16:34:41;;;;;;;1.20;1.10;;;28.80;59.40;;;;;;4959900;28;20183;-85
2023/05/31 16:37:07;;;;;;;1.23;1.13;;;28.90;59.50;;;;;;4940375;29;20584;-85
2023/05/31 16:39:32;;;;;;;2.73;1.80;;;28.70;59.50;;;;;;4935275;29;20196;-85
2023/05/31 16:41:58;;;;;;;1.20;1.10;;;28.50;59.40;;;;;;4940893;29;20179;-86
2023/05/31 16:44:24;;;;;;;1.00;0.90;;;28.30;59.90;;;;;;4938793;29;20187;-83
2023/05/31 16:46:49;;;;;;;1.67;1.60;;;28.10;60.10;;;;;;4931737;29;21108;-88